Data for 02/22/2016

Time Sea-Level Adjusted Pressure Absolute Pressure Temperature Relative Humidity Dew Point   
(mb) (inHg) (mb) (inHg) (C) (F) (%) (C) (F)
00:05 1019 30.09 849 25.07 1.7 35.1 44 -9.4 15.1
00:10 1019 30.09 848 25.04 1.6 34.9 45 -9.1 15.6
00:15 1019 30.09 848 25.04 1.6 34.9 41 -10.3 13.5
00:20 1019 30.09 848 25.04 1.8 35.3 39 -10.8 12.6
00:25 1019 30.09 848 25.04 2 35.6 43 -9.4 15.1
00:30 1019 30.09 848 25.04 2 35.6 41 -10 14.1
00:35 1019 30.09 848 25.04 1.8 35.3 46 -8.6 16.5
00:40 1019 30.09 848 25.04 1.5 34.7 43 -9.7 14.5
00:45 1019 30.09 848 25.04 1.6 34.9 43 -9.8 14.4
00:50 1019 30.09 848 25.04 1.7 35.1 42 -9.8 14.3
00:55 1019 30.09 848 25.04 1.8 35.3 40 -10.4 13.2
01:00 1019 30.09 848 25.04 1.9 35.5 39 -10.5 13
01:05 1019 30.09 848 25.04 2.1 35.7 38 -10.9 12.3
01:10 1019 30.09 848 25.04 2.2 36 37 -10.9 12.4
01:15 1019 30.09 848 25.04 2.2 36 38 -10.7 12.7
01:20 1019 30.09 848 25.04 2.2 35.9 39 -10.3 13.4
01:25 1019 30.09 848 25.04 2 35.7 40 -10.3 13.5
01:30 1019 30.09 848 25.04 2 35.6 40 -10.2 13.7
01:35 1019 30.09 848 25.04 1.9 35.5 40 -10.3 13.5
01:40 1019 30.09 848 25.04 1.9 35.3 42 -9.8 14.4
01:45 1019 30.09 848 25.04 1.6 34.8 44 -9.4 15
01:50 1019 30.09 848 25.04 1.4 34.5 44 -9.7 14.6
01:55 1019 30.09 848 25.04 1.5 34.7 43 -9.9 14.2
02:00 1019 30.09 848 25.04 1.6 35 43 -9.7 14.5
02:05 1019 30.09 848 25.04 1.8 35.2 42 -9.8 14.4
02:10 1019 30.09 848 25.04 1.7 35.1 41 -10.2 13.7
02:15 1019 30.09 848 25.04 2 35.5 42 -9.8 14.4
02:20 1019 30.09 848 25.04 2.2 35.9 42 -9.5 14.9
02:25 1019 30.09 848 25.04 2.2 36 44 -8.8 16.1
02:30 1019 30.09 848 25.04 2.3 36.1 45 -8.4 16.9
02:35 1019 30.09 848 25.04 2.3 36.2 47 -7.8 17.9
02:40 1019 30.09 848 25.04 2.5 36.6 49 -7.2 19
02:45 1019 30.09 848 25.04 2.5 36.5 50 -7 19.5
02:50 1019 30.09 848 25.04 2.5 36.6 51 -6.6 20
02:55 1019 30.09 848 25.04 2.8 37 51 -6.5 20.3
03:00 1019 30.09 848 25.04 2.8 37 50 -6.6 20.2
03:05 1019 30.09 848 25.04 2.7 36.9 49 -7.1 19.3
03:10 1019 30.09 848 25.04 2.7 36.8 47 -7.5 18.5
03:15 1019 30.09 848 25.04 2.6 36.7 46 -7.8 18
03:20 1019 30.09 848 25.04 2.5 36.6 46 -8 17.7
03:25 1019 30.09 848 25.04 2.5 36.5 46 -7.9 17.8
03:30 1019 30.09 848 25.04 2.4 36.3 48 -7.7 18.2
03:35 1019 30.09 848 25.04 2.2 36 49 -7.5 18.6
03:40 1019 30.09 848 25.04 2.1 35.7 50 -7.4 18.7
03:45 1019 30.09 848 25.04 2 35.5 50 -7.4 18.6
03:50 1019 30.09 848 25.04 1.9 35.4 50 -7.4 18.7
03:55 1019 30.09 848 25.04 1.8 35.3 50 -7.5 18.5
04:00 1019 30.09 848 25.04 1.8 35.3 49 -7.7 18.1
04:05 1019 30.09 848 25.04 1.8 35.3 49 -7.8 17.9
04:10 1019 30.09 848 25.04 1.9 35.4 49 -7.8 17.9
04:15 1018 30.06 848 25.04 1.9 35.4 49 -7.7 18.1
04:20 1018 30.06 848 25.04 1.9 35.3 49 -7.7 18.1
04:25 1018 30.06 848 25.04 1.8 35.2 51 -7.3 18.8
04:30 1018 30.06 848 25.04 1.5 34.8 52 -7.2 19
04:35 1018 30.06 848 25.04 1.4 34.5 52 -7.3 18.9
04:40 1018 30.06 848 25.04 1.3 34.3 53 -7.3 18.8
04:45 1018 30.06 848 25.04 1.3 34.3 52 -7.5 18.6
04:50 1018 30.06 848 25.04 1.3 34.3 53 -7.4 18.7
04:55 1018 30.06 848 25.04 1.3 34.3 53 -7.3 18.9
05:00 1019 30.09 848 25.04 1.2 34.2 53 -7.2 19
05:05 1019 30.09 848 25.04 1.2 34.1 54 -7.1 19.3
05:10 1019 30.09 848 25.04 1 33.9 55 -7 19.3
05:15 1019 30.09 848 25.04 1 33.7 56 -6.9 19.5
05:20 1019 30.09 848 25.04 0.9 33.7 56 -6.9 19.6
05:25 1019 30.09 848 25.04 0.9 33.5 56 -7 19.4
05:30 1019 30.09 848 25.04 0.8 33.4 56 -7 19.5
05:35 1019 30.09 848 25.04 0.8 33.4 55 -7.2 19
05:40 1019 30.09 848 25.04 0.8 33.5 55 -7.3 18.9
05:45 1019 30.09 848 25.04 0.8 33.5 54 -7.3 18.8
05:50 1019 30.09 848 25.04 0.9 33.7 54 -7.4 18.7
05:55 1019 30.09 848 25.04 1 33.8 54 -7.3 18.9
06:00 1019 30.09 848 25.04 1 33.8 54 -7.3 18.9
06:05 1019 30.09 848 25.04 1 33.8 54 -7.2 19
06:10 1019 30.09 848 25.04 1 33.7 54 -7.3 18.9
06:15 1019 30.09 848 25.04 0.9 33.7 55 -7.2 19
06:20 1019 30.09 848 25.04 0.9 33.6 55 -7.2 19
06:25 1019 30.09 848 25.04 0.9 33.5 54 -7.3 18.8
06:30 1019 30.09 848 25.04 0.9 33.6 55 -7.2 19
06:35 1019 30.09 848 25.04 0.9 33.5 55 -7.1 19.2
06:40 1019 30.09 848 25.04 0.8 33.5 56 -7 19.4
06:45 1019 30.09 848 25.04 0.9 33.5 56 -6.9 19.5
06:50 1019 30.09 848 25.04 0.9 33.6 56 -6.8 19.7
06:55 1019 30.09 848 25.04 0.9 33.7 57 -6.8 19.8
07:00 1019 30.09 848 25.04 0.9 33.7 57 -6.8 19.8
07:05 1019 30.09 849 25.07 0.9 33.7 57 -6.8 19.8
07:10 1019 30.09 849 25.07 0.9 33.6 56 -6.9 19.7
07:15 1019 30.09 849 25.07 0.9 33.7 55 -7.2 19
07:20 1019 30.09 849 25.07 1 33.8 54 -7.2 19
07:25 1019 30.09 849 25.07 1 33.8 55 -7.1 19.2
07:30 1019 30.09 849 25.07 0.9 33.6 55 -7 19.3
07:35 1019 30.09 849 25.07 0.8 33.5 56 -7.1 19.3
07:40 1020 30.12 849 25.07 0.7 33.3 56 -7 19.4
07:45 1020 30.12 849 25.07 0.7 33.3 56 -7.1 19.2
07:50 1020 30.12 849 25.07 0.7 33.3 56 -7.1 19.2
07:55 1020 30.12 849 25.07 0.6 33.1 56 -7.2 19.1
08:00 1020 30.12 849 25.07 0.5 32.9 56 -7.2 19
08:05 1020 30.12 849 25.07 0.4 32.7 57 -7.2 19
08:10 1020 30.12 849 25.07 0.4 32.7 57 -7.1 19.2
08:15 1020 30.12 849 25.07 0.2 32.4 59 -7 19.4
08:20 1020 30.12 849 25.07 0.1 32.2 59 -7 19.5
08:25 1020 30.12 849 25.07 0.1 32.2 59 -6.9 19.6
08:30 1020 30.12 849 25.07 0.1 32.2 60 -6.7 19.9
08:35 1020 30.12 849 25.07 0 32.1 61 -6.7 19.9
08:40 1020 30.12 849 25.07 -0 31.9 61 -6.7 19.9
08:45 1020 30.12 849 25.07 -0.1 31.9 61 -6.7 19.9
08:50 1020 30.12 849 25.07 -0.1 31.8 61 -6.7 20
08:55 1020 30.12 849 25.07 -0.1 31.8 61 -6.7 19.9
09:00 1020 30.12 849 25.07 -0 31.9 61 -6.7 20
09:05 1020 30.12 849 25.07 0 32 61 -6.6 20
09:10 1020 30.12 849 25.07 0.1 32.1 61 -6.5 20.3
09:15 1020 30.12 850 25.1 0.1 32.2 61 -6.6 20.1
09:20 1020 30.12 850 25.1 0.2 32.4 59 -6.9 19.6
09:25 1020 30.12 850 25.1 0.4 32.7 57 -7.2 19
09:30 1021 30.15 850 25.1 0.5 32.8 56 -7.2 19
09:35 1020 30.12 850 25.1 0.4 32.8 56 -7.3 18.9
09:40 1020 30.12 850 25.1 0.5 32.9 56 -7.2 19
09:45 1020 30.12 850 25.1 0.5 32.9 56 -7.2 19.1
09:50 1021 30.15 850 25.1 0.5 32.9 56 -7.2 19
09:55 1021 30.15 850 25.1 0.5 33 56 -7.2 19
10:00 1021 30.15 850 25.1 0.5 33 54 -7.6 18.3
10:05 1021 30.15 850 25.1 0.6 33.1 53 -7.9 17.7
10:10 1021 30.15 850 25.1 0.7 33.2 53 -7.9 17.8
10:15 1021 30.15 850 25.1 0.8 33.4 51 -8.2 17.2
10:20 1021 30.15 850 25.1 0.8 33.4 50 -8.6 16.6
10:25 1021 30.15 850 25.1 0.9 33.6 48 -9 15.8
10:30 1021 30.15 850 25.1 1 33.8 45 -9.6 14.8
10:35 1021 30.15 850 25.1 1 33.8 44 -9.9 14.2
10:40 1021 30.15 850 25.1 1 33.8 44 -9.8 14.3
10:45 1021 30.15 850 25.1 1.1 33.9 45 -9.7 14.6
10:50 1021 30.15 850 25.1 1 33.8 44 -9.9 14.1
10:55 1021 30.15 850 25.1 1.2 34.2 45 -9.5 14.9
11:00 1021 30.15 850 25.1 2.2 35.9 40 -10.2 13.6
11:05 1021 30.15 850 25.1 3.1 37.6 36 -10.6 12.9
11:10 1021 30.15 850 25.1 3.3 38 35 -10.7 12.8
11:15 1021 30.15 850 25.1 2.9 37.2 35 -11.3 11.7
11:20 1021 30.15 850 25.1 2.7 36.8 34 -11.7 10.9
11:25 1021 30.15 850 25.1 2.8 37.1 33 -11.9 10.5
11:30 1021 30.15 850 25.1 3.1 37.7 32 -11.9 10.5
11:35 1021 30.15 850 25.1 3.4 38.1 32 -11.8 10.7
11:40 1021 30.15 850 25.1 3.7 38.6 32 -11.4 11.5
11:45 1021 30.15 850 25.1 3.7 38.7 32 -11.5 11.4
11:50 1021 30.15 850 25.1 3.9 39 33 -11 12.2
11:55 1021 30.15 850 25.1 3.9 39.1 32 -11.2 11.9
12:00 1021 30.15 850 25.1 3.9 39 32 -11.3 11.6
12:05 1021 30.15 850 25.1 3.8 38.9 32 -11.5 11.3
12:10 1021 30.15 850 25.1 3.8 38.9 32 -11.4 11.4
12:15 1021 30.15 850 25.1 3.9 38.9 31 -11.7 11
12:20 1021 30.15 850 25.1 3.8 38.8 32 -11.6 11.1
12:25 1021 30.15 850 25.1 4 39.2 31 -11.5 11.3
12:30 1021 30.15 850 25.1 3.5 38.3 32 -11.9 10.7
12:35 1021 30.15 850 25.1 3.6 38.6 31 -11.8 10.8
12:40 1021 30.15 850 25.1 3.7 38.7 31 -11.9 10.6
12:45 1021 30.15 850 25.1 4 39.2 30 -12.1 10.2
12:50 1021 30.15 850 25.1 4.2 39.6 29 -12.1 10.2
12:55 1021 30.15 850 25.1 4.7 40.5 29 -11.9 10.5
13:00 1021 30.15 850 25.1 4.2 39.6 31 -11.6 11.1
13:05 1021 30.15 850 25.1 3.5 38.3 31 -12.3 9.9
13:10 1021 30.15 850 25.1 3.7 38.6 29 -12.6 9.3
13:15 1021 30.15 850 25.1 3.6 38.6 29 -12.7 9.2
13:20 1021 30.15 850 25.1 3.4 38.2 30 -12.5 9.5
13:25 1021 30.15 850 25.1 3.3 37.9 30 -12.6 9.3
13:30 1021 30.15 850 25.1 3.3 38 32 -12 10.4
13:35 1020 30.12 850 25.1 3.4 38 31 -12.2 10
13:40 1020 30.12 849 25.07 3.4 38.1 31 -12.3 9.9
13:45 1020 30.12 849 25.07 3.6 38.5 30 -12.4 9.7
13:50 1020 30.12 849 25.07 4.3 39.8 30 -11.8 10.8
13:55 1020 30.12 849 25.07 4.9 40.9 28 -12.1 10.2
14:00 1020 30.12 849 25.07 4.8 40.6 29 -11.9 10.6
14:05 1020 30.12 849 25.07 4.8 40.6 29 -12 10.4
14:10 1020 30.12 849 25.07 4.8 40.6 29 -12 10.4
14:15 1020 30.12 849 25.07 5 41 28 -12.2 10
14:20 1020 30.12 849 25.07 5.1 41.2 28 -12.2 10.1
14:25 1020 30.12 849 25.07 4.9 40.9 28 -12.2 10
14:30 1020 30.12 849 25.07 4.8 40.7 27 -12.6 9.4
14:35 1020 30.12 849 25.07 4.8 40.7 27 -12.6 9.2
14:40 1020 30.12 849 25.07 4.2 39.6 28 -12.7 9.2
14:45 1020 30.12 849 25.07 4.8 40.7 27 -12.8 8.9
14:50 1020 30.12 849 25.07 5.3 41.5 28 -11.7 11
14:55 1020 30.12 849 25.07 4.6 40.2 29 -12.1 10.2
15:00 1020 30.12 849 25.07 4.7 40.5 27 -12.7 9.2
15:05 1020 30.12 849 25.07 4.9 40.8 27 -12.7 9.2
15:10 1020 30.12 849 25.07 4.4 40 27 -13 8.7
15:15 1020 30.12 849 25.07 4 39.1 28 -12.8 9
15:20 1020 30.12 849 25.07 4 39.2 28 -12.9 8.8
15:25 1020 30.12 849 25.07 4.3 39.7 28 -12.7 9.2
15:30 1020 30.12 849 25.07 4.1 39.3 28 -12.8 9
15:35 1020 30.12 849 25.07 4.1 39.3 27 -13.2 8.3
15:40 1020 30.12 849 25.07 4 39.2 26 -13.8 7.2
15:45 1020 30.12 849 25.07 4.1 39.3 26 -13.8 7.1
15:50 1020 30.12 849 25.07 4.3 39.7 25 -14.2 6.4
15:55 1020 30.12 849 25.07 4.1 39.4 24 -14.8 5.3
16:00 1020 30.12 849 25.07 4.7 40.5 23 -14.7 5.5
16:05 1020 30.12 849 25.07 4.7 40.5 23 -14.6 5.7
16:10 1020 30.12 849 25.07 4.2 39.5 24 -14.7 5.5
16:15 1020 30.12 849 25.07 3.9 39.1 25 -14.4 6.1
16:20 1020 30.12 849 25.07 4 39.2 26 -14 6.7
16:25 1020 30.12 849 25.07 3.9 39.1 25 -14.3 6.3
16:30 1020 30.12 849 25.07 3.9 38.9 25 -14.4 6.1
16:35 1020 30.12 849 25.07 4 39.2 25 -14.4 6.1
16:40 1020 30.12 849 25.07 4 39.2 25 -14.3 6.2
16:45 1020 30.12 849 25.07 3.9 38.9 25 -14.6 5.7
16:50 1020 30.12 849 25.07 3.5 38.4 25 -14.9 5.2
16:55 1020 30.12 849 25.07 3.5 38.3 24 -15.1 4.8
17:00 1020 30.12 849 25.07 3.3 37.9 23 -16.2 2.9
17:05 1020 30.12 849 25.07 3.8 38.8 22 -16 3.3
17:10 1020 30.12 849 25.07 4.3 39.7 21 -16 3.2
17:15 1020 30.12 849 25.07 4.3 39.8 24 -14.7 5.6
17:20 1020 30.12 849 25.07 3.8 38.8 25 -14.4 6
17:25 1020 30.12 849 25.07 3.7 38.7 25 -14.4 6.2
17:30 1020 30.12 849 25.07 3.8 38.8 26 -14.3 6.2
17:35 1020 30.12 850 25.1 3.7 38.6 27 -13.8 7.2
17:40 1020 30.12 850 25.1 3.5 38.3 28 -13.3 8.1
17:45 1020 30.12 850 25.1 3.3 38 28 -13.7 7.3
17:50 1020 30.12 850 25.1 3.2 37.8 29 -13.3 8.1
17:55 1020 30.12 850 25.1 3.1 37.6 29 -13.4 7.9
18:00 1021 30.15 850 25.1 3.1 37.7 29 -13.3 8
18:05 1021 30.15 850 25.1 3.2 37.7 29 -13 8.5
18:10 1021 30.15 850 25.1 3.2 37.7 29 -13.4 7.9
18:15 1021 30.15 850 25.1 3 37.4 29 -13.4 7.9
18:20 1021 30.15 850 25.1 3 37.3 29 -13.5 7.7
18:25 1021 30.15 850 25.1 2.8 37 29 -13.5 7.7
18:30 1021 30.15 850 25.1 2.7 36.8 30 -13.4 7.9
18:35 1021 30.15 850 25.1 2.5 36.5 31 -13 8.6
18:40 1021 30.15 850 25.1 2.2 35.9 31 -13.4 7.9
18:45 1021 30.15 850 25.1 1.9 35.5 31 -13.6 7.6
18:50 1021 30.15 850 25.1 1.8 35.3 31 -13.4 7.8
18:55 1021 30.15 850 25.1 1.7 35.1 32 -13.2 8.2
19:00 1021 30.15 850 25.1 1.6 34.9 33 -13.1 8.4
19:05 1021 30.15 851 25.13 1.5 34.7 35 -12.5 9.5
19:10 1021 30.15 851 25.13 1.2 34.1 41 -10.7 12.8
19:15 1021 30.15 851 25.13 0.7 33.3 46 -9.7 14.5
19:20 1021 30.15 851 25.13 0.5 32.9 48 -9.4 15.1
19:25 1022 30.18 851 25.13 0.4 32.7 48 -9.4 15.2
19:30 1022 30.18 851 25.13 0.3 32.6 49 -9.3 15.3
19:35 1022 30.18 851 25.13 0.3 32.5 49 -9.2 15.4
19:40 1022 30.18 851 25.13 0.2 32.4 49 -9.3 15.2
19:45 1022 30.18 851 25.13 0.2 32.3 48 -9.7 14.6
19:50 1022 30.18 851 25.13 0.2 32.3 48 -9.7 14.6
19:55 1022 30.18 851 25.13 0.2 32.3 47 -9.7 14.5
20:00 1022 30.18 851 25.13 0.2 32.4 48 -9.6 14.6
20:05 1022 30.18 851 25.13 0.1 32.1 49 -9.5 14.8
20:10 1022 30.18 851 25.13 -0 32 50 -9.3 15.2
20:15 1022 30.18 851 25.13 -0.2 31.7 51 -9.2 15.4
20:20 1022 30.18 851 25.13 -0.2 31.6 51 -9.2 15.5
20:25 1022 30.18 851 25.13 -0.3 31.4 51 -9.3 15.2
20:30 1022 30.18 851 25.13 -0.4 31.4 51 -9.4 15.1
20:35 1022 30.18 851 25.13 -0.4 31.2 50 -9.6 14.8
20:40 1022 30.18 852 25.16 -0.4 31.2 49 -9.8 14.4
20:45 1022 30.18 852 25.16 -0.6 31 52 -9.2 15.5
20:50 1022 30.18 852 25.16 -0.8 30.5 51 -9.7 14.6
20:55 1022 30.18 852 25.16 -1 30.3 52 -9.7 14.5
21:00 1022 30.18 852 25.16 -1 30.1 52 -9.7 14.5
21:05 1023 30.21 852 25.16 -1.1 30.1 51 -9.8 14.3
21:10 1023 30.21 852 25.16 -1.1 30 51 -10 13.9
21:15 1023 30.21 852 25.16 -1.1 30 50 -10.2 13.6
21:20 1023 30.21 852 25.16 -1.1 30.1 51 -10 13.9
21:25 1023 30.21 852 25.16 -1.1 30.1 51 -9.9 14.1
21:30 1023 30.21 852 25.16 -1.2 29.8 52 -9.8 14.4
21:35 1023 30.21 852 25.16 -1.3 29.6 53 -9.6 14.7
21:40 1023 30.21 852 25.16 -1.3 29.6 54 -9.5 15
21:45 1023 30.21 852 25.16 -1.3 29.6 55 -9.2 15.5
21:50 1023 30.21 852 25.16 -1.7 29 58 -9 15.9
21:55 1023 30.21 852 25.16 -2.1 28.1 59 -9.1 15.6
22:00 1023 30.21 852 25.16 -2.2 28 59 -9.2 15.4
22:05 1023 30.21 852 25.16 -2.3 27.9 59 -9.3 15.3
22:10 1023 30.21 852 25.16 -2.2 28 58 -9.3 15.2
22:15 1023 30.21 852 25.16 -2.2 28.1 58 -9.3 15.3
22:20 1023 30.21 853 25.19 -2.2 28.1 59 -9.2 15.5
22:25 1023 30.21 853 25.19 -2.3 27.9 59 -9.2 15.5
22:30 1023 30.21 853 25.19 -2.3 27.8 60 -9.2 15.5
22:35 1024 30.24 853 25.19 -2.4 27.7 60 -9.2 15.4
22:40 1023 30.21 853 25.19 -2.4 27.7 58 -9.5 15
22:45 1023 30.21 853 25.19 -2.3 27.8 59 -9.4 15.2
22:50 1023 30.21 853 25.19 -2.4 27.6 59 -9.4 15.1
22:55 1024 30.24 853 25.19 -2.6 27.3 61 -9.1 15.5
23:00 1024 30.24 853 25.19 -2.7 27.1 61 -9.3 15.3
23:05 1024 30.24 853 25.19 -2.7 27.1 62 -8.9 15.9
23:10 1024 30.24 853 25.19 -3 26.6 63 -9.1 15.6
23:15 1024 30.24 853 25.19 -3 26.6 62 -9.2 15.4
23:20 1024 30.24 853 25.19 -2.8 26.9 62 -9.2 15.5
23:25 1024 30.24 853 25.19 -2.7 27.1 59 -9.6 14.8
23:30 1024 30.24 853 25.19 -2.4 27.7 58 -9.6 14.6
23:35 1024 30.24 853 25.19 -2.1 28.3 57 -9.4 15.1
23:40 1024 30.24 853 25.19 -2 28.4 57 -9.4 15
23:45 1024 30.24 853 25.19 -2 28.3 58 -9.3 15.2
23:50 1024 30.24 853 25.19 -2 28.3 58 -9.2 15.4
23:55 1024 30.24 853 25.19 -2.1 28.2 58 -9.3 15.2
24:00 1024 30.24 853 25.19 -2.2 28.1 58 -9.3 15.2